createdAt,value
2022-10-17T00:01:15.206Z,11.07
2022-10-17T00:03:43.673Z,7.13
2022-10-17T00:06:15.212Z,11.73
2022-10-17T00:08:44.997Z,6.87
2022-10-17T00:11:20.702Z,8.20
2022-10-17T00:13:51.047Z,7.20
2022-10-17T00:16:37.456Z,7.17
2022-10-17T00:19:07.790Z,14.97
2022-10-17T00:21:36.149Z,8.13
2022-10-17T00:24:04.662Z,8.07
2022-10-17T00:26:33.213Z,7.50
2022-10-17T00:29:01.698Z,8.07
2022-10-17T00:31:30.241Z,9.07
2022-10-17T00:33:58.662Z,7.93
2022-10-17T00:36:28.688Z,7.90
2022-10-17T00:39:00.200Z,8.40
2022-10-17T00:41:33.021Z,8.00
2022-10-17T00:44:06.312Z,8.50
2022-10-17T00:46:39.611Z,8.90
2022-10-17T00:49:13.517Z,9.27
2022-10-17T00:51:59.843Z,9.90
2022-10-17T00:54:36.950Z,10.00
2022-10-17T00:57:05.810Z,10.50
2022-10-17T00:59:39.022Z,9.90
2022-10-17T01:02:10.563Z,9.37
2022-10-17T01:04:41.584Z,9.80
2022-10-17T01:07:10.635Z,10.83
2022-10-17T01:09:39.774Z,9.50
2022-10-17T01:12:21.586Z,10.23
2022-10-17T01:15:19.022Z,10.27
2022-10-17T01:18:10.262Z,10.47
2022-10-17T01:20:47.463Z,10.03
2022-10-17T01:23:34.153Z,10.10
2022-10-17T01:26:18.584Z,10.47
2022-10-17T01:29:05.461Z,11.03
2022-10-17T01:32:04.623Z,11.40
2022-10-17T01:34:46.488Z,10.40
2022-10-17T01:38:00.190Z,10.47
2022-10-17T01:40:46.870Z,10.80
2022-10-17T01:43:38.437Z,11.37
2022-10-17T01:46:17.620Z,10.60
2022-10-17T01:48:47.510Z,11.43
2022-10-17T01:51:27.731Z,11.63
2022-10-17T01:54:03.969Z,11.43
2022-10-17T01:56:34.192Z,11.00
2022-10-17T01:59:16.186Z,11.60
2022-10-17T02:01:48.342Z,11.20
2022-10-17T02:04:17.298Z,10.60
2022-10-17T02:06:45.778Z,11.33
2022-10-17T02:09:28.106Z,12.10
2022-10-17T02:12:05.578Z,11.33
2022-10-17T02:14:46.378Z,11.27
2022-10-17T02:17:26.100Z,12.07
2022-10-17T02:20:07.072Z,13.20
2022-10-17T02:22:59.490Z,13.20
2022-10-17T02:25:33.023Z,13.97
2022-10-17T02:28:15.810Z,14.03
2022-10-17T02:30:53.589Z,15.20
2022-10-17T02:33:36.632Z,14.20
2022-10-17T02:36:11.527Z,15.47
2022-10-17T02:38:41.471Z,13.43
2022-10-17T02:41:13.742Z,14.60
2022-10-17T02:43:46.049Z,14.20
2022-10-17T02:46:23.703Z,14.80
2022-10-17T02:48:57.515Z,14.10
2022-10-17T02:51:28.953Z,15.47
2022-10-17T02:54:12.529Z,14.77
2022-10-17T02:56:56.702Z,15.67
2022-10-17T02:59:27.695Z,15.40
2022-10-17T03:01:56.529Z,15.23
2022-10-17T03:04:25.107Z,14.40
2022-10-17T03:06:53.469Z,14.50
2022-10-17T03:09:21.841Z,15.03
2022-10-17T03:11:51.959Z,15.60
2022-10-17T03:14:20.351Z,15.10
2022-10-17T03:16:48.710Z,15.50
2022-10-17T03:19:17.164Z,15.90
2022-10-17T03:21:45.532Z,15.53
2022-10-17T03:24:13.990Z,15.60
2022-10-17T03:26:42.575Z,16.97
2022-10-17T03:29:11.284Z,14.93
2022-10-17T03:31:39.667Z,14.27
2022-10-17T03:34:08.220Z,15.20
2022-10-17T03:36:36.645Z,15.03
2022-10-17T03:39:05.377Z,15.77
2022-10-17T03:41:33.830Z,15.00
2022-10-17T03:44:02.194Z,15.20
2022-10-17T03:46:30.645Z,14.77
2022-10-17T03:48:59.129Z,13.90
2022-10-17T03:51:27.547Z,15.33
2022-10-17T03:53:55.947Z,15.37
2022-10-17T03:56:26.384Z,15.27
2022-10-17T03:58:55.983Z,14.97
2022-10-17T04:01:25.059Z,14.60
2022-10-17T04:03:55.589Z,15.97
2022-10-17T04:06:24.665Z,17.30
2022-10-17T04:08:54.206Z,17.33
2022-10-17T04:11:23.270Z,16.90
2022-10-17T04:13:56.657Z,19.10
2022-10-17T04:16:25.713Z,19.57
2022-10-17T04:18:58.727Z,18.10
2022-10-17T04:21:28.821Z,18.87
2022-10-17T04:24:01.586Z,18.43
2022-10-17T04:26:30.094Z,18.50
2022-10-17T04:28:58.537Z,18.53
2022-10-17T04:31:26.917Z,18.73
2022-10-17T04:33:55.442Z,18.00
2022-10-17T04:36:24.250Z,16.60
2022-10-17T04:38:52.585Z,16.60
2022-10-17T04:41:21.133Z,18.13
2022-10-17T04:43:51.240Z,16.73
2022-10-17T04:46:20.250Z,18.00
2022-10-17T04:48:48.663Z,16.93
2022-10-17T04:51:21.786Z,16.97
2022-10-17T04:53:53.124Z,17.33
2022-10-17T04:56:24.717Z,18.33
2022-10-17T04:58:53.804Z,17.40
2022-10-17T05:01:24.205Z,17.60
2022-10-17T05:03:53.109Z,19.97
2022-10-17T05:06:28.777Z,17.30
2022-10-17T05:08:58.302Z,19.30
2022-10-17T05:11:30.734Z,17.50
2022-10-17T05:14:01.304Z,17.47
2022-10-17T05:16:30.653Z,18.03
2022-10-17T05:19:00.427Z,18.00
2022-10-17T05:21:30.787Z,16.80
2022-10-17T05:23:59.632Z,18.37
2022-10-17T05:26:28.241Z,16.53
2022-10-17T05:28:56.669Z,18.47
2022-10-17T05:31:25.062Z,16.70
2022-10-17T05:33:53.535Z,18.43
2022-10-17T05:36:22.048Z,18.43
2022-10-17T05:38:54.247Z,19.00
2022-10-17T05:41:22.835Z,17.63
2022-10-17T05:43:51.638Z,17.60
2022-10-17T05:46:20.118Z,18.60
2022-10-17T05:48:49.699Z,16.50
2022-10-17T05:51:18.186Z,17.20
2022-10-17T05:53:46.627Z,16.33
2022-10-17T05:56:15.555Z,17.77
2022-10-17T05:58:51.626Z,18.80
2022-10-17T06:01:21.954Z,18.60
2022-10-17T06:03:50.379Z,16.57
2022-10-17T06:06:19.736Z,17.50
2022-10-17T06:08:48.265Z,16.13
2022-10-17T06:11:16.969Z,16.87
2022-10-17T06:13:45.354Z,17.30
2022-10-17T06:16:13.777Z,17.20
2022-10-17T06:18:42.233Z,18.70
2022-10-17T06:21:13.514Z,18.93
2022-10-17T06:23:42.059Z,19.10
2022-10-17T06:26:10.466Z,18.20
2022-10-17T06:28:40.796Z,17.60
2022-10-17T06:31:14.190Z,18.70
2022-10-17T06:33:42.878Z,18.57
2022-10-17T06:36:14.494Z,17.00
2022-10-17T06:38:43.177Z,16.70
2022-10-17T06:41:15.301Z,17.50
2022-10-17T06:43:48.209Z,17.33
2022-10-17T06:46:18.573Z,15.27
2022-10-17T06:48:47.192Z,20.43
2022-10-17T06:51:15.682Z,18.20
2022-10-17T06:53:44.106Z,18.70
2022-10-17T06:56:12.790Z,16.97
2022-10-17T06:58:42.482Z,18.33
2022-10-17T07:01:14.410Z,18.30
2022-10-17T07:03:44.551Z,17.07
2022-10-17T07:06:13.072Z,20.63
2022-10-17T07:08:48.290Z,18.20
2022-10-17T07:11:19.390Z,19.30
2022-10-17T07:13:49.038Z,18.13
2022-10-17T07:16:17.837Z,18.30
2022-10-17T07:18:49.872Z,18.53
2022-10-17T07:21:18.546Z,18.47
2022-10-17T07:23:47.034Z,17.90
2022-10-17T07:26:17.193Z,17.00
2022-10-17T07:28:48.214Z,18.00
2022-10-17T07:31:19.818Z,15.47
2022-10-17T07:33:48.654Z,17.10
2022-10-17T07:36:17.566Z,18.20
2022-10-17T07:38:46.272Z,20.17
2022-10-17T07:41:19.179Z,20.00
2022-10-17T07:43:50.220Z,19.07
2022-10-17T07:46:18.713Z,18.60
2022-10-17T07:48:47.144Z,18.13
2022-10-17T07:51:15.603Z,17.87
2022-10-17T07:53:48.071Z,18.63
2022-10-17T07:56:17.944Z,19.20
2022-10-17T07:58:46.435Z,17.73
2022-10-17T08:01:16.123Z,19.13
2022-10-17T08:03:51.907Z,18.10
2022-10-17T08:06:20.251Z,17.73
2022-10-17T08:08:48.799Z,17.30
2022-10-17T08:11:17.858Z,20.40
2022-10-17T08:13:46.279Z,17.50
2022-10-17T08:16:15.060Z,18.73
2022-10-17T08:18:44.719Z,17.37
2022-10-17T08:21:15.514Z,17.50
2022-10-17T08:23:44.046Z,16.67
2022-10-17T08:26:14.335Z,17.73
2022-10-17T08:28:42.848Z,16.40
2022-10-17T08:31:14.088Z,17.03
2022-10-17T08:33:43.988Z,18.10
2022-10-17T08:36:15.527Z,16.00
2022-10-17T08:38:45.473Z,17.40
2022-10-17T08:41:53.760Z,17.20
2022-10-17T08:45:09.237Z,15.50
2022-10-17T08:47:44.047Z,16.10
2022-10-17T08:50:35.384Z,16.40
2022-10-17T08:53:37.503Z,18.10
2022-10-17T08:56:19.824Z,15.40
2022-10-17T08:58:53.514Z,18.17
2022-10-17T09:01:46.186Z,15.87
2022-10-17T09:04:58.253Z,16.60
2022-10-17T09:07:43.494Z,17.03
2022-10-17T09:10:18.122Z,17.50
2022-10-17T09:13:11.453Z,16.20
2022-10-17T09:16:08.631Z,18.50
2022-10-17T09:18:43.946Z,17.40
2022-10-17T09:21:21.786Z,17.67
2022-10-17T09:24:09.156Z,17.70
2022-10-17T09:26:40.724Z,17.30
2022-10-17T09:29:22.715Z,16.50
2022-10-17T09:32:04.883Z,18.37
2022-10-17T09:34:34.153Z,17.10
2022-10-17T09:37:03.511Z,18.73
2022-10-17T09:39:33.925Z,19.07
2022-10-17T09:42:03.995Z,19.70
2022-10-17T09:44:33.982Z,18.33
2022-10-17T09:47:27.349Z,18.73
2022-10-17T09:49:56.472Z,20.60
2022-10-17T09:52:40.680Z,18.80
2022-10-17T09:55:23.670Z,16.77
2022-10-17T09:58:00.479Z,16.90
2022-10-17T10:00:34.712Z,17.63
2022-10-17T10:03:22.714Z,17.23
2022-10-17T10:06:16.484Z,19.00
2022-10-17T10:08:56.337Z,16.93
2022-10-17T10:11:46.343Z,17.77
2022-10-17T10:14:34.232Z,18.40
2022-10-17T10:17:04.858Z,18.77
2022-10-17T10:19:35.733Z,18.60
2022-10-17T10:22:18.795Z,17.90
2022-10-17T10:24:47.704Z,17.50
2022-10-17T10:27:18.780Z,16.53
2022-10-17T10:29:54.497Z,17.80
2022-10-17T10:32:33.030Z,18.30
2022-10-17T10:35:24.652Z,17.77
2022-10-17T10:37:56.785Z,18.20
2022-10-17T10:40:48.282Z,16.83
2022-10-17T10:43:43.930Z,16.40
2022-10-17T10:46:24.944Z,17.63
2022-10-17T10:48:59.278Z,19.33
2022-10-17T10:51:31.351Z,18.73
2022-10-17T10:54:31.804Z,19.60
2022-10-17T10:57:04.361Z,19.87
2022-10-17T11:00:04.900Z,20.37
2022-10-17T11:02:54.621Z,20.00
2022-10-17T11:05:45.923Z,18.07
2022-10-17T11:08:32.662Z,17.30
2022-10-17T11:11:24.718Z,20.07
2022-10-17T11:14:07.433Z,18.20
2022-10-17T11:16:48.530Z,19.17
2022-10-17T11:19:31.370Z,18.30
2022-10-17T11:22:17.771Z,19.23
2022-10-17T11:25:01.549Z,17.80
2022-10-17T11:27:31.636Z,16.70
2022-10-17T11:30:00.432Z,18.40
2022-10-17T11:32:35.113Z,19.70
2022-10-17T11:35:35.244Z,18.47
2022-10-17T11:38:34.372Z,18.13
2022-10-17T11:41:05.138Z,17.83
2022-10-17T11:43:43.623Z,18.47
2022-10-17T11:46:27.360Z,18.30
2022-10-17T11:49:20.164Z,18.30
2022-10-17T11:52:56.790Z,21.50
2022-10-17T11:55:28.313Z,18.50
2022-10-17T11:58:21.151Z,17.10
2022-10-17T12:00:49.795Z,18.13
2022-10-17T12:03:30.055Z,20.20
2022-10-17T12:06:35.559Z,19.80
2022-10-17T12:09:32.262Z,19.10
2022-10-17T12:12:03.253Z,19.87
2022-10-17T12:14:43.732Z,21.70
2022-10-17T12:17:28.946Z,17.10
2022-10-17T12:20:26.208Z,18.30
2022-10-17T12:22:56.294Z,17.60
2022-10-17T12:25:31.639Z,18.40
2022-10-17T12:28:32.059Z,20.30
2022-10-17T12:31:32.525Z,19.37
2022-10-17T12:34:06.589Z,20.20
2022-10-17T12:36:34.958Z,17.20
2022-10-17T12:39:03.466Z,21.37
2022-10-17T12:41:40.849Z,20.50
2022-10-17T12:44:15.518Z,18.17
2022-10-17T12:46:58.985Z,18.43
2022-10-17T12:49:56.456Z,19.20
2022-10-17T12:52:35.934Z,16.57
2022-10-17T12:55:15.152Z,19.07
2022-10-17T12:57:49.574Z,19.27
2022-10-17T13:00:24.103Z,17.30
2022-10-17T13:02:56.398Z,20.63
2022-10-17T13:05:30.447Z,18.20
2022-10-17T13:08:02.259Z,18.30
2022-10-17T13:10:34.622Z,17.57
2022-10-17T13:13:34.611Z,19.30
2022-10-17T13:16:03.017Z,20.67
2022-10-17T13:18:31.890Z,18.20
2022-10-17T13:21:16.709Z,18.33
2022-10-17T13:23:46.039Z,18.33
2022-10-17T13:26:21.113Z,19.67
2022-10-17T13:29:13.554Z,20.90
2022-10-17T13:31:45.119Z,18.57
2022-10-17T13:34:21.909Z,18.50
2022-10-17T13:36:56.925Z,20.53
2022-10-17T13:39:45.003Z,19.60
2022-10-17T13:42:30.418Z,21.40
2022-10-17T13:45:00.255Z,19.20
2022-10-17T13:47:32.859Z,20.60
2022-10-17T13:50:01.877Z,19.80
2022-10-17T13:52:31.393Z,18.57
2022-10-17T13:55:17.813Z,22.67
2022-10-17T13:57:46.404Z,21.40
2022-10-17T14:00:22.116Z,21.50
2022-10-17T14:02:50.641Z,21.80
2022-10-17T14:05:22.010Z,23.13
2022-10-17T14:08:12.800Z,27.33
2022-10-17T14:10:44.930Z,25.10
2022-10-17T14:13:31.378Z,25.27
2022-10-17T14:16:03.654Z,28.23
2022-10-17T14:18:36.881Z,23.90
2022-10-17T14:24:22.838Z,23.67
2022-10-17T14:26:53.489Z,23.00
2022-10-17T14:29:33.363Z,27.60
2022-10-17T14:32:05.055Z,29.90
2022-10-17T14:34:40.202Z,27.60
2022-10-17T14:37:44.611Z,30.90
2022-10-17T14:40:25.266Z,32.13
2022-10-17T14:42:56.112Z,27.40
2022-10-17T14:45:35.918Z,26.10
2022-10-17T14:48:25.272Z,30.93
2022-10-17T14:51:16.598Z,26.80
2022-10-17T14:54:04.914Z,25.57
2022-10-17T14:56:43.061Z,27.90
2022-10-17T14:59:15.656Z,24.90
2022-10-17T15:01:50.960Z,26.60
2022-10-17T15:04:19.849Z,27.57
2022-10-17T15:06:55.818Z,26.03
2022-10-17T15:09:24.683Z,26.53
2022-10-17T15:11:53.081Z,26.80
2022-10-17T15:14:21.498Z,28.13
2022-10-17T15:16:49.865Z,28.27
2022-10-17T15:19:18.218Z,27.20
2022-10-17T15:21:47.418Z,26.60
2022-10-17T15:24:16.660Z,31.60
2022-10-17T15:26:45.105Z,24.07
2022-10-17T15:29:17.387Z,26.60
2022-10-17T15:31:45.721Z,25.47
2022-10-17T15:34:14.119Z,33.90
2022-10-17T15:36:49.232Z,36.27
2022-10-17T15:39:17.681Z,32.83
2022-10-17T15:41:46.377Z,35.90
2022-10-17T15:44:15.210Z,36.50
2022-10-17T15:46:44.288Z,31.00
2022-10-17T15:49:18.867Z,24.97
2022-10-17T15:51:50.326Z,24.50
2022-10-17T15:54:20.392Z,24.70
2022-10-17T15:56:54.881Z,23.00
2022-10-17T15:59:34.520Z,25.43
2022-10-17T16:02:02.912Z,25.53
2022-10-17T16:04:31.459Z,24.00
2022-10-17T16:06:59.874Z,24.43
2022-10-17T16:09:30.388Z,22.13
2022-10-17T16:11:58.794Z,22.17
2022-10-17T16:14:27.162Z,21.90
2022-10-17T16:16:55.497Z,22.73
2022-10-17T16:19:24.473Z,21.07
2022-10-17T16:21:53.125Z,18.83
2022-10-17T16:24:21.526Z,20.30
2022-10-17T16:26:50.131Z,18.73
2022-10-17T16:29:18.657Z,18.97
2022-10-17T16:31:47.479Z,21.13
2022-10-17T16:34:16.817Z,20.73
2022-10-17T16:36:45.338Z,18.97
2022-10-17T16:39:13.683Z,19.67
2022-10-17T16:41:42.136Z,19.20
2022-10-17T16:44:15.401Z,19.40
2022-10-17T16:46:43.741Z,19.00
2022-10-17T16:49:13.055Z,19.13
2022-10-17T16:51:41.491Z,20.30
2022-10-17T16:54:10.433Z,20.40
2022-10-17T16:56:38.820Z,22.47
2022-10-17T16:59:07.224Z,21.07
2022-10-17T17:01:35.596Z,23.50
2022-10-17T17:04:05.419Z,23.07
2022-10-17T17:06:34.017Z,20.60
2022-10-17T17:09:02.525Z,22.90
2022-10-17T17:11:30.944Z,22.10
2022-10-17T17:14:02.585Z,21.37
2022-10-17T17:16:32.730Z,21.40
2022-10-17T17:19:05.328Z,20.77
2022-10-17T17:21:34.516Z,19.40
2022-10-17T17:24:04.699Z,21.93
2022-10-17T17:26:38.464Z,21.20
2022-10-17T17:29:07.064Z,21.33
2022-10-17T17:31:36.860Z,21.07
2022-10-17T17:34:05.940Z,22.17
2022-10-17T17:36:37.213Z,21.23
2022-10-17T17:39:08.375Z,19.17
2022-10-17T17:41:36.955Z,20.10
2022-10-17T17:44:06.377Z,19.60
2022-10-17T17:46:34.910Z,20.03
2022-10-17T17:49:03.346Z,22.37
2022-10-17T17:51:31.752Z,21.43
2022-10-17T17:54:00.502Z,20.97
2022-10-17T17:56:31.071Z,18.60
2022-10-17T17:59:01.680Z,20.70
2022-10-17T18:01:32.676Z,17.27
2022-10-17T18:04:01.386Z,16.97
2022-10-17T18:06:31.051Z,17.63
2022-10-17T18:09:00.407Z,17.47
2022-10-17T18:11:29.416Z,18.93
2022-10-17T18:14:00.468Z,18.67
2022-10-17T18:16:30.266Z,16.37
2022-10-17T18:19:04.041Z,17.83
2022-10-17T18:21:35.837Z,16.13
2022-10-17T18:24:05.672Z,18.37
2022-10-17T18:26:34.490Z,19.27
2022-10-17T18:29:03.013Z,18.97
2022-10-17T18:31:36.478Z,20.20
2022-10-17T18:34:06.525Z,21.97
2022-10-17T18:36:36.347Z,19.53
2022-10-17T18:39:06.048Z,17.43
2022-10-17T18:41:34.909Z,20.67
2022-10-17T18:44:06.356Z,19.13
2022-10-17T18:46:41.283Z,19.13
2022-10-17T18:49:15.502Z,17.27
2022-10-17T18:51:44.216Z,16.57
2022-10-17T18:54:21.233Z,17.13
2022-10-17T18:56:52.734Z,17.73
2022-10-17T18:59:22.075Z,16.67
2022-10-17T19:01:51.933Z,15.80
2022-10-17T19:04:21.926Z,16.03
2022-10-17T19:06:50.391Z,18.20
2022-10-17T19:09:19.332Z,15.90
2022-10-17T19:11:47.851Z,16.13
2022-10-17T19:14:17.364Z,16.43
2022-10-17T19:16:48.726Z,17.23
2022-10-17T19:19:25.811Z,17.30
2022-10-17T19:21:54.689Z,18.13
2022-10-17T19:24:26.393Z,16.97
2022-10-17T19:26:57.161Z,16.60
2022-10-17T19:29:33.941Z,16.87
2022-10-17T19:32:04.063Z,16.93
2022-10-17T19:34:32.839Z,17.60
2022-10-17T19:37:01.274Z,15.90
2022-10-17T19:39:30.251Z,17.03
2022-10-17T19:42:00.038Z,17.13
2022-10-17T19:44:30.206Z,16.40
2022-10-17T19:46:58.600Z,19.20
2022-10-17T19:49:27.011Z,18.93
2022-10-17T19:51:56.530Z,18.80
2022-10-17T19:54:25.002Z,18.23
2022-10-17T19:56:53.373Z,19.60
2022-10-17T19:59:21.867Z,18.17
2022-10-17T20:01:50.516Z,17.30
2022-10-17T20:04:18.857Z,17.20
2022-10-17T20:06:47.195Z,18.73
2022-10-17T20:09:17.215Z,19.40
2022-10-17T20:11:45.999Z,17.77
2022-10-17T20:14:14.414Z,18.93
2022-10-17T20:16:43.126Z,18.50
2022-10-17T20:19:13.218Z,18.47
2022-10-17T20:21:41.694Z,18.57
2022-10-17T20:24:14.179Z,19.40
2022-10-17T20:26:42.986Z,18.80
2022-10-17T20:29:20.579Z,19.43
2022-10-17T20:31:49.920Z,18.17
2022-10-17T20:34:19.814Z,18.50
2022-10-17T20:36:49.090Z,20.40
2022-10-17T20:39:19.468Z,20.03
2022-10-17T20:41:48.383Z,18.37
2022-10-17T20:44:16.907Z,20.30
2022-10-17T20:47:00.735Z,19.30
2022-10-17T20:49:31.372Z,17.90
2022-10-17T20:52:01.373Z,17.70
2022-10-17T20:54:29.885Z,16.97
2022-10-17T20:57:01.053Z,18.50
2022-10-17T20:59:32.938Z,16.80
2022-10-17T21:02:01.644Z,16.80
2022-10-17T21:04:46.024Z,15.73
2022-10-17T21:07:15.806Z,15.80
2022-10-17T21:09:44.411Z,15.47
2022-10-17T21:12:18.123Z,15.97
2022-10-17T21:14:54.657Z,14.10
2022-10-17T21:17:23.154Z,16.20
2022-10-17T21:19:51.620Z,14.10
2022-10-17T21:22:20.169Z,16.43
2022-10-17T21:24:48.580Z,15.80
2022-10-17T21:27:19.616Z,15.40
2022-10-17T21:29:49.421Z,15.23
2022-10-17T21:32:31.919Z,15.00
2022-10-17T21:35:06.626Z,13.70
2022-10-17T21:37:35.033Z,15.37
2022-10-17T21:40:03.413Z,13.50
2022-10-17T21:42:31.995Z,14.17
2022-10-17T21:45:00.554Z,15.23
2022-10-17T21:47:30.423Z,15.00
2022-10-17T21:49:58.847Z,15.97
2022-10-17T21:52:27.181Z,14.10
2022-10-17T21:54:55.525Z,16.20
2022-10-17T21:57:24.033Z,16.60
2022-10-17T21:59:52.369Z,17.17
2022-10-17T22:02:20.827Z,15.00
2022-10-17T22:04:49.314Z,14.83
2022-10-17T22:07:17.655Z,14.80
2022-10-17T22:09:46.063Z,15.70
2022-10-17T22:12:14.580Z,15.67
2022-10-17T22:14:44.905Z,16.27
2022-10-17T22:17:13.424Z,17.37
2022-10-17T22:19:41.890Z,15.97
2022-10-17T22:22:10.576Z,16.23
2022-10-17T22:24:39.143Z,17.40
2022-10-17T22:27:07.578Z,15.73
2022-10-17T22:29:36.034Z,16.30
2022-10-17T22:32:04.420Z,16.67
2022-10-17T22:34:32.839Z,16.63
2022-10-17T22:37:01.261Z,16.17
2022-10-17T22:39:29.668Z,16.80
2022-10-17T22:41:58.598Z,16.93
2022-10-17T22:44:26.950Z,17.23
2022-10-17T22:46:55.297Z,16.47
2022-10-17T22:49:23.785Z,16.30
2022-10-17T22:51:52.145Z,16.77
2022-10-17T22:54:20.533Z,17.00
2022-10-17T22:56:50.619Z,15.03
2022-10-17T22:59:19.023Z,16.70
2022-10-17T23:01:47.495Z,15.93
2022-10-17T23:04:15.959Z,15.93
2022-10-17T23:06:44.325Z,17.40
2022-10-17T23:09:14.331Z,15.67
2022-10-17T23:11:42.986Z,16.67
2022-10-17T23:14:11.357Z,16.90
2022-10-17T23:16:39.773Z,16.23
2022-10-17T23:19:08.245Z,15.80
2022-10-17T23:21:36.607Z,16.43
2022-10-17T23:24:05.051Z,16.10
2022-10-17T23:26:33.474Z,16.40
2022-10-17T23:29:01.907Z,17.10
2022-10-17T23:31:30.353Z,16.53
2022-10-17T23:34:00.211Z,16.10
2022-10-17T23:36:28.622Z,15.60
2022-10-17T23:38:58.547Z,15.17
2022-10-17T23:41:27.321Z,15.23
2022-10-17T23:43:55.669Z,16.37
2022-10-17T23:46:24.128Z,15.53
2022-10-17T23:48:52.590Z,15.30
2022-10-17T23:51:21.337Z,16.73
2022-10-17T23:53:49.676Z,16.10
2022-10-17T23:56:18.238Z,15.60
2022-10-17T23:58:46.661Z,15.10
